createdAt,value
2022-12-11T00:00:09.533Z,24.13
2022-12-11T00:02:36.368Z,24.23
2022-12-11T00:05:03.421Z,24.10
2022-12-11T00:07:31.613Z,25.15
2022-12-11T00:09:58.221Z,24.17
2022-12-11T00:12:25.103Z,27.52
2022-12-11T00:14:53.069Z,25.80
2022-12-11T00:17:19.861Z,26.23
2022-12-11T00:19:46.587Z,26.45
2022-12-11T00:22:13.232Z,24.48
2022-12-11T00:24:41.260Z,24.85
2022-12-11T00:27:07.922Z,25.58
2022-12-11T00:29:34.555Z,26.02
2022-12-11T00:32:01.405Z,26.77
2022-12-11T00:34:28.337Z,26.45
2022-12-11T00:36:55.033Z,26.00
2022-12-11T00:39:21.782Z,25.77
2022-12-11T00:41:49.909Z,26.52
2022-12-11T00:44:16.548Z,27.10
2022-12-11T00:46:43.239Z,27.55
2022-12-11T00:49:10.326Z,26.60
2022-12-11T00:51:37.083Z,27.95
2022-12-11T00:54:04.138Z,29.17
2022-12-11T00:56:30.884Z,26.98
2022-12-11T00:58:58.926Z,27.58
2022-12-11T01:01:25.739Z,27.38
2022-12-11T01:03:53.477Z,27.45
2022-12-11T01:06:22.952Z,28.33
2022-12-11T01:08:49.882Z,26.40
2022-12-11T01:11:17.210Z,26.58
2022-12-11T01:13:43.996Z,25.85
2022-12-11T01:16:15.563Z,26.23
2022-12-11T01:18:42.456Z,25.60
2022-12-11T01:21:10.935Z,25.45
2022-12-11T01:23:37.908Z,25.30
2022-12-11T01:26:06.475Z,24.50
2022-12-11T01:28:33.076Z,26.10
2022-12-11T01:31:00.225Z,26.17
2022-12-11T01:33:28.793Z,24.92
2022-12-11T01:35:55.495Z,24.65
2022-12-11T01:38:22.372Z,25.42
2022-12-11T01:40:51.197Z,24.73
2022-12-11T01:43:18.773Z,24.00
2022-12-11T01:45:47.363Z,24.52
2022-12-11T01:48:17.635Z,23.30
2022-12-11T01:50:49.898Z,24.70
2022-12-11T01:53:20.370Z,23.10
2022-12-11T01:55:49.003Z,24.27
2022-12-11T01:58:17.555Z,23.75
2022-12-11T02:00:44.332Z,23.50
2022-12-11T02:03:11.118Z,23.40
2022-12-11T02:05:38.217Z,22.25
2022-12-11T02:08:07.583Z,22.48
2022-12-11T02:10:52.849Z,23.02
2022-12-11T02:13:27.419Z,21.98
2022-12-11T02:16:01.150Z,21.38
2022-12-11T02:18:34.891Z,22.05
2022-12-11T02:21:07.223Z,20.48
2022-12-11T02:23:51.582Z,21.75
2022-12-11T02:26:39.994Z,22.05
2022-12-11T02:29:12.924Z,21.83
2022-12-11T02:31:45.183Z,21.45
2022-12-11T02:34:17.265Z,20.92
2022-12-11T02:36:48.906Z,20.85
2022-12-11T02:39:17.701Z,23.00
2022-12-11T02:41:48.657Z,21.25
2022-12-11T02:44:21.453Z,20.92
2022-12-11T02:49:15.865Z,20.58
2022-12-11T02:51:43.705Z,21.27
2022-12-11T02:54:13.746Z,21.42
2022-12-11T02:56:44.814Z,21.80
2022-12-11T02:59:18.976Z,20.85
2022-12-11T03:01:46.494Z,20.88
2022-12-11T03:04:13.419Z,20.80
2022-12-11T03:06:45.575Z,21.23
2022-12-11T03:09:12.871Z,20.52
2022-12-11T03:11:39.520Z,20.58
2022-12-11T03:14:08.016Z,21.58
2022-12-11T03:16:38.283Z,21.42
2022-12-11T03:19:13.700Z,20.40
2022-12-11T03:21:45.548Z,19.77
2022-12-11T03:24:20.071Z,20.75
2022-12-11T03:27:00.170Z,19.75
2022-12-11T03:29:35.077Z,20.80
2022-12-11T03:32:08.301Z,22.65
2022-12-11T03:34:41.345Z,20.98
2022-12-11T03:37:10.514Z,20.77
2022-12-11T03:39:41.171Z,20.60
2022-12-11T03:42:12.367Z,20.10
2022-12-11T03:44:41.112Z,21.02
2022-12-11T03:47:10.580Z,20.27
2022-12-11T03:49:41.913Z,20.92
2022-12-11T03:52:12.631Z,19.80
2022-12-11T03:54:41.131Z,20.65
2022-12-11T03:57:10.067Z,19.55
2022-12-11T03:59:36.941Z,20.75
2022-12-11T04:02:03.710Z,20.42
2022-12-11T04:04:31.995Z,19.50
2022-12-11T04:06:58.736Z,19.20
2022-12-11T04:09:25.629Z,19.10
2022-12-11T04:11:52.255Z,19.70
2022-12-11T04:14:19.876Z,19.23
2022-12-11T04:16:46.625Z,19.35
2022-12-11T04:19:13.558Z,18.95
2022-12-11T04:21:41.735Z,18.38
2022-12-11T04:24:09.316Z,19.10
2022-12-11T04:26:36.801Z,19.30
2022-12-11T04:29:03.545Z,18.65
2022-12-11T04:31:30.365Z,20.15
2022-12-11T04:33:57.033Z,19.55
2022-12-11T04:36:23.791Z,18.83
2022-12-11T04:38:51.906Z,18.70
2022-12-11T04:41:18.869Z,18.33
2022-12-11T04:43:45.720Z,17.52
2022-12-11T04:46:14.708Z,18.70
2022-12-11T04:48:41.938Z,17.02
2022-12-11T04:51:09.229Z,19.02
2022-12-11T04:53:36.655Z,18.45
2022-12-11T04:56:07.417Z,17.98
2022-12-11T04:58:34.788Z,15.98
2022-12-11T05:01:06.675Z,18.35
2022-12-11T05:03:33.329Z,17.90
2022-12-11T05:05:59.969Z,17.27
2022-12-11T05:08:26.689Z,17.85
2022-12-11T05:10:57.246Z,17.33
2022-12-11T05:13:26.900Z,17.27
2022-12-11T05:15:53.972Z,17.95
2022-12-11T05:18:21.073Z,17.17
2022-12-11T05:20:55.405Z,17.70
2022-12-11T05:23:22.365Z,16.13
2022-12-11T05:25:52.296Z,17.73
2022-12-11T05:28:19.007Z,17.10
2022-12-11T05:30:47.316Z,17.35
2022-12-11T05:33:14.278Z,17.45
2022-12-11T05:35:47.141Z,16.45
2022-12-11T05:38:13.995Z,15.77
2022-12-11T05:40:40.671Z,16.65
2022-12-11T05:43:07.590Z,15.80
2022-12-11T05:45:34.804Z,16.33
2022-12-11T05:48:02.951Z,16.60
2022-12-11T05:50:29.542Z,15.88
2022-12-11T05:52:56.318Z,15.27
2022-12-11T05:55:23.053Z,16.23
2022-12-11T05:57:50.299Z,15.75
2022-12-11T06:00:16.916Z,16.55
2022-12-11T06:02:43.810Z,15.63
2022-12-11T06:05:12.461Z,15.77
2022-12-11T06:07:39.411Z,16.17
2022-12-11T06:10:07.012Z,15.35
2022-12-11T06:12:33.663Z,15.57
2022-12-11T06:15:00.327Z,16.63
2022-12-11T06:17:27.042Z,16.23
2022-12-11T06:19:53.669Z,16.42
2022-12-11T06:22:22.079Z,16.45
2022-12-11T06:24:48.716Z,16.23
2022-12-11T06:27:17.123Z,15.18
2022-12-11T06:29:43.769Z,16.42
2022-12-11T06:32:10.565Z,14.95
2022-12-11T06:34:37.261Z,16.20
2022-12-11T06:37:03.986Z,15.05
2022-12-11T06:39:32.427Z,15.25
2022-12-11T06:41:59.288Z,14.93
2022-12-11T06:44:26.028Z,14.25
2022-12-11T06:46:52.712Z,15.27
2022-12-11T06:49:19.384Z,16.27
2022-12-11T06:51:46.096Z,14.32
2022-12-11T06:54:12.879Z,14.35
2022-12-11T06:56:40.916Z,14.70
2022-12-11T06:59:11.417Z,15.05
2022-12-11T07:01:38.152Z,12.75
2022-12-11T07:04:04.958Z,14.15
2022-12-11T07:06:31.769Z,14.00
2022-12-11T07:08:58.375Z,13.65
2022-12-11T07:11:25.180Z,14.55
2022-12-11T07:13:53.333Z,15.93
2022-12-11T07:16:20.107Z,14.50
2022-12-11T07:18:48.620Z,14.32
2022-12-11T07:21:15.932Z,14.52
2022-12-11T07:23:43.245Z,15.60
2022-12-11T07:26:13.153Z,14.18
2022-12-11T07:28:40.235Z,14.45
2022-12-11T07:31:09.740Z,16.17
2022-12-11T07:33:37.256Z,16.10
2022-12-11T07:36:06.505Z,15.48
2022-12-11T07:38:33.593Z,15.52
2022-12-11T07:41:01.074Z,15.25
2022-12-11T07:43:28.042Z,15.13
2022-12-11T07:45:54.753Z,15.88
2022-12-11T07:48:22.898Z,15.38
2022-12-11T07:50:49.513Z,15.55
2022-12-11T07:53:16.386Z,15.50
2022-12-11T07:55:43.128Z,15.73
2022-12-11T07:58:09.968Z,15.35
2022-12-11T08:00:37.458Z,14.73
2022-12-11T08:03:04.411Z,16.17
2022-12-11T08:05:32.399Z,15.27
2022-12-11T08:08:25.594Z,14.77
2022-12-11T08:10:52.398Z,16.02
2022-12-11T08:13:19.105Z,14.27
2022-12-11T08:15:45.919Z,15.32
2022-12-11T08:18:14.078Z,14.38
2022-12-11T08:20:42.128Z,14.25
2022-12-11T08:23:11.654Z,14.43
2022-12-11T08:25:38.541Z,14.32
2022-12-11T08:28:05.464Z,13.95
2022-12-11T08:30:32.347Z,14.13
2022-12-11T08:32:59.198Z,14.07
2022-12-11T08:35:26.174Z,13.85
2022-12-11T08:37:54.336Z,14.60
2022-12-11T08:40:21.143Z,13.52
2022-12-11T08:42:48.670Z,13.23
2022-12-11T08:45:16.055Z,11.98
2022-12-11T08:47:42.813Z,11.63
2022-12-11T08:50:10.276Z,12.30
2022-12-11T08:52:37.210Z,11.57
2022-12-11T08:55:06.464Z,12.65
2022-12-11T08:57:33.149Z,12.82
2022-12-11T09:00:00.001Z,12.23
2022-12-11T09:02:26.773Z,12.07
2022-12-11T09:04:53.509Z,11.32
2022-12-11T09:07:20.248Z,12.13
2022-12-11T09:09:47.039Z,11.63
2022-12-11T09:12:15.238Z,11.63
2022-12-11T09:14:42.056Z,11.90
2022-12-11T09:17:08.716Z,11.65
2022-12-11T09:19:35.412Z,11.80
2022-12-11T09:22:02.182Z,11.68
2022-12-11T09:24:28.934Z,11.02
2022-12-11T09:26:55.639Z,11.63
2022-12-11T09:29:23.728Z,11.27
2022-12-11T09:31:50.444Z,11.00
2022-12-11T09:34:17.209Z,10.57
2022-12-11T09:36:43.957Z,11.05
2022-12-11T09:39:12.207Z,11.90
2022-12-11T09:41:45.845Z,11.90
2022-12-11T09:44:20.129Z,11.75
2022-12-11T09:46:49.973Z,12.05
2022-12-11T09:49:28.557Z,11.95
2022-12-11T09:52:07.027Z,12.20
2022-12-11T09:54:34.613Z,12.40
2022-12-11T09:57:10.795Z,12.73
2022-12-11T09:59:48.561Z,12.07
2022-12-11T10:02:30.510Z,12.68
2022-12-11T10:05:07.941Z,11.88
2022-12-11T10:07:39.009Z,11.85
2022-12-11T10:10:18.478Z,12.40
2022-12-11T10:12:54.078Z,12.93
2022-12-11T10:15:33.680Z,13.93
2022-12-11T10:18:05.515Z,13.38
2022-12-11T10:20:34.223Z,15.20
2022-12-11T10:23:01.450Z,13.18
2022-12-11T10:25:31.319Z,13.00
2022-12-11T10:27:58.289Z,14.82
2022-12-11T10:30:32.950Z,13.93
2022-12-11T10:33:13.170Z,13.95
2022-12-11T10:35:45.395Z,13.55
2022-12-11T10:38:15.962Z,11.48
2022-12-11T10:40:47.686Z,13.50
2022-12-11T10:43:14.588Z,13.10
2022-12-11T10:45:50.542Z,13.00
2022-12-11T10:48:18.815Z,14.20
2022-12-11T10:50:57.336Z,14.77
2022-12-11T10:53:24.758Z,14.82
2022-12-11T10:55:51.940Z,15.13
2022-12-11T10:58:22.749Z,14.77
2022-12-11T11:01:08.778Z,13.82
2022-12-11T11:03:53.921Z,13.63
2022-12-11T11:06:22.223Z,14.23
2022-12-11T11:08:51.064Z,12.85
2022-12-11T11:11:25.797Z,13.43
2022-12-11T11:13:52.747Z,14.15
2022-12-11T11:40:16.126Z,15.82
2022-12-11T11:42:49.262Z,15.25
2022-12-11T11:45:20.611Z,14.18
2022-12-11T11:47:55.663Z,13.20
2022-12-11T11:50:26.710Z,12.57
2022-12-11T11:52:59.706Z,14.20
2022-12-11T11:55:39.752Z,15.05
2022-12-11T11:58:15.172Z,13.20
2022-12-11T12:00:42.490Z,15.70
2022-12-11T12:03:12.457Z,15.35
2022-12-11T12:05:49.857Z,15.32
2022-12-11T12:08:26.315Z,13.50
2022-12-11T12:11:02.882Z,15.02
2022-12-11T12:13:50.663Z,13.73
2022-12-11T12:19:37.504Z,13.38
2022-12-11T12:22:20.758Z,14.90
2022-12-11T12:24:59.185Z,12.55
2022-12-11T12:30:23.196Z,13.50
2022-12-11T12:33:05.618Z,12.95
2022-12-11T12:35:36.222Z,12.77
2022-12-11T12:38:10.859Z,11.55
2022-12-11T12:40:48.523Z,12.30
2022-12-11T12:43:33.364Z,12.43
2022-12-11T12:46:11.509Z,12.05
2022-12-11T12:48:38.911Z,11.73
2022-12-11T12:51:06.647Z,11.75
2022-12-11T12:53:36.933Z,12.20
2022-12-11T12:56:05.550Z,12.13
2022-12-11T12:58:43.338Z,12.10
2022-12-11T13:01:16.950Z,12.38
2022-12-11T13:03:53.930Z,11.35
2022-12-11T13:06:33.976Z,12.48
2022-12-11T13:09:13.380Z,12.57
2022-12-11T13:11:40.129Z,11.90
2022-12-11T13:14:24.302Z,11.48
2022-12-11T13:16:52.379Z,11.73
2022-12-11T13:19:40.626Z,11.57
2022-12-11T13:22:22.648Z,11.15
2022-12-11T13:24:57.448Z,10.95
2022-12-11T13:27:26.381Z,10.15
2022-12-11T13:30:06.395Z,10.75
2022-12-11T13:32:33.972Z,10.63
2022-12-11T13:35:06.295Z,12.30
2022-12-11T13:37:36.591Z,10.82
2022-12-11T13:40:07.395Z,10.82
2022-12-11T13:42:38.836Z,10.38
2022-12-11T13:45:17.901Z,10.38
2022-12-11T13:47:45.802Z,11.00
2022-12-11T13:50:16.496Z,10.57
2022-12-11T13:52:53.203Z,10.70
2022-12-11T13:55:24.417Z,10.63
2022-12-11T13:57:51.223Z,10.45
2022-12-11T14:00:23.181Z,11.10
2022-12-11T14:02:51.749Z,11.02
2022-12-11T14:05:19.348Z,10.52
2022-12-11T14:07:49.078Z,11.25
2022-12-11T14:10:19.391Z,11.70
2022-12-11T14:12:51.465Z,10.85
2022-12-11T14:15:18.861Z,11.00
2022-12-11T14:17:51.470Z,12.00
2022-12-11T14:20:21.525Z,11.43
2022-12-11T14:22:48.279Z,11.48
2022-12-11T14:25:22.400Z,11.93
2022-12-11T14:27:50.723Z,10.23
2022-12-11T14:30:22.669Z,12.07
2022-12-11T14:32:53.231Z,12.07
2022-12-11T14:35:26.103Z,12.38
2022-12-11T14:40:22.832Z,11.90
2022-12-11T14:43:00.003Z,12.25
2022-12-11T14:45:33.634Z,13.15
2022-12-11T14:48:05.278Z,12.88
2022-12-11T14:50:37.981Z,12.88
2022-12-11T14:55:36.824Z,12.82
2022-12-11T14:58:14.823Z,13.50
2022-12-11T15:00:41.572Z,13.70
2022-12-11T15:03:22.577Z,13.10
2022-12-11T15:05:51.581Z,14.95
2022-12-11T15:08:21.103Z,13.95
2022-12-11T15:11:01.239Z,15.60
2022-12-11T15:13:28.104Z,15.63
2022-12-11T15:15:56.059Z,17.98
2022-12-11T15:18:27.138Z,14.98
2022-12-11T15:20:56.855Z,14.75
2022-12-11T15:23:23.968Z,14.65
2022-12-11T15:25:52.493Z,14.50
2022-12-11T15:28:28.517Z,14.65
2022-12-11T15:30:57.116Z,15.25
2022-12-11T15:33:28.467Z,15.75
2022-12-11T15:36:02.215Z,15.95
2022-12-11T15:38:32.224Z,15.63
2022-12-11T15:40:59.831Z,15.07
2022-12-11T15:43:27.738Z,14.57
2022-12-11T15:45:54.598Z,13.70
2022-12-11T15:48:21.241Z,14.43
2022-12-11T15:50:49.645Z,13.88
2022-12-11T15:53:16.247Z,13.25
2022-12-11T15:55:43.128Z,13.48
2022-12-11T15:58:15.800Z,15.43
2022-12-11T16:03:12.384Z,12.65
2022-12-11T16:05:39.364Z,12.77
2022-12-11T16:08:07.909Z,12.70
2022-12-11T16:10:34.672Z,12.70
2022-12-11T16:13:01.359Z,12.65
2022-12-11T16:15:29.061Z,12.82
2022-12-11T16:18:00.937Z,12.07
2022-12-11T16:20:27.730Z,12.33
2022-12-11T16:22:54.337Z,11.80
2022-12-11T16:25:22.396Z,12.77
2022-12-11T16:27:50.009Z,12.95
2022-12-11T16:30:16.704Z,11.98
2022-12-11T16:32:43.697Z,11.80
2022-12-11T16:35:10.769Z,12.55
2022-12-11T16:37:37.887Z,12.10
2022-12-11T16:40:05.681Z,11.80
2022-12-11T16:42:33.937Z,12.38
2022-12-11T16:45:04.906Z,11.10
2022-12-11T16:47:31.823Z,11.63
2022-12-11T16:49:59.359Z,12.30
2022-12-11T16:52:26.011Z,12.15
2022-12-11T16:54:52.622Z,14.93
2022-12-11T16:57:19.542Z,19.17
2022-12-11T16:59:48.432Z,15.18
2022-12-11T17:02:15.326Z,12.77
2022-12-11T17:04:42.327Z,13.15
2022-12-11T17:07:09.061Z,12.73
2022-12-11T17:09:36.048Z,13.15
2022-12-11T17:12:03.630Z,14.27
2022-12-11T17:14:31.001Z,13.25
2022-12-11T17:16:59.248Z,14.45
2022-12-11T17:19:26.012Z,14.07
2022-12-11T17:21:53.007Z,16.27
2022-12-11T17:24:20.150Z,14.80
2022-12-11T17:26:47.099Z,14.20
2022-12-11T17:29:14.479Z,13.88
2022-12-11T17:31:41.365Z,13.27
2022-12-11T17:34:09.607Z,13.43
2022-12-11T17:36:36.260Z,13.05
2022-12-11T17:39:03.069Z,13.85
2022-12-11T17:41:29.804Z,13.77
2022-12-11T17:43:56.500Z,14.68
2022-12-11T17:46:23.374Z,14.07
2022-12-11T17:48:50.377Z,13.77
2022-12-11T17:51:19.197Z,13.52
2022-12-11T17:53:45.986Z,14.05
2022-12-11T17:56:12.654Z,14.02
2022-12-11T17:58:39.344Z,16.85
2022-12-11T18:01:08.603Z,14.25
2022-12-11T18:03:36.119Z,14.43
2022-12-11T18:06:06.148Z,13.35
2022-12-11T18:08:34.486Z,14.95
2022-12-11T18:11:05.337Z,14.50
2022-12-11T18:13:32.383Z,13.98
2022-12-11T18:16:00.942Z,14.13
2022-12-11T18:18:27.778Z,13.30
2022-12-11T18:20:54.463Z,13.77
2022-12-11T18:23:21.362Z,12.93
2022-12-11T18:25:49.421Z,14.13
2022-12-11T18:28:16.161Z,13.82
2022-12-11T18:30:42.928Z,12.63
2022-12-11T18:33:09.718Z,13.50
2022-12-11T18:35:36.702Z,14.13
2022-12-11T18:38:03.475Z,13.65
2022-12-11T18:40:30.490Z,14.60
2022-12-11T18:42:58.693Z,13.43
2022-12-11T18:45:25.393Z,13.43
2022-12-11T18:47:52.041Z,13.40
2022-12-11T18:50:18.730Z,12.52
2022-12-11T18:52:45.442Z,12.90
2022-12-11T18:55:12.590Z,11.90
2022-12-11T18:57:39.588Z,12.73
2022-12-11T19:00:12.888Z,13.43
2022-12-11T19:02:39.730Z,13.88
2022-12-11T19:05:12.979Z,13.95
2022-12-11T19:07:40.035Z,14.18
2022-12-11T19:10:07.350Z,14.18
2022-12-11T19:12:34.034Z,14.27
2022-12-11T19:15:00.625Z,14.43
2022-12-11T19:17:28.610Z,13.82
2022-12-11T19:19:55.234Z,14.38
2022-12-11T19:22:21.990Z,14.20
2022-12-11T19:24:48.617Z,14.88
2022-12-11T19:27:15.308Z,15.70
2022-12-11T19:29:41.949Z,13.63
2022-12-11T19:32:08.681Z,14.90
2022-12-11T19:34:36.723Z,14.68
2022-12-11T19:37:03.374Z,14.10
2022-12-11T19:39:30.109Z,14.23
2022-12-11T19:41:56.698Z,13.60
2022-12-11T19:44:23.375Z,13.70
2022-12-11T19:46:50.137Z,13.30
2022-12-11T19:49:16.869Z,14.30
2022-12-11T19:51:44.810Z,14.30
2022-12-11T19:54:13.888Z,14.73
2022-12-11T19:56:40.780Z,14.65
2022-12-11T19:59:11.399Z,14.20
2022-12-11T20:01:38.512Z,13.70
2022-12-11T20:04:07.298Z,13.95
2022-12-11T20:06:36.208Z,14.18
2022-12-11T20:09:06.026Z,14.90
2022-12-11T20:11:33.620Z,15.63
2022-12-11T20:14:00.302Z,14.52
2022-12-11T20:16:46.180Z,14.88
2022-12-11T20:19:14.112Z,16.10
2022-12-11T20:21:40.857Z,15.07
2022-12-11T20:24:09.353Z,14.70
2022-12-11T20:26:36.512Z,18.30
2022-12-11T20:29:04.317Z,16.25
2022-12-11T20:31:31.448Z,17.02
2022-12-11T20:33:58.201Z,16.52
2022-12-11T20:36:25.481Z,18.25
2022-12-11T20:38:53.227Z,24.88
2022-12-11T20:41:22.862Z,17.38
2022-12-11T20:43:50.193Z,18.52
2022-12-11T20:46:18.123Z,16.88
2022-12-11T20:48:45.172Z,18.33
2022-12-11T20:51:14.193Z,16.23
2022-12-11T20:53:42.219Z,15.95
2022-12-11T20:56:11.249Z,16.75
2022-12-11T20:58:39.796Z,16.75
2022-12-11T21:01:12.611Z,15.90
2022-12-11T21:03:42.167Z,16.83
2022-12-11T21:06:09.309Z,16.20
2022-12-11T21:08:35.922Z,16.20
2022-12-11T21:11:05.615Z,16.08
2022-12-11T21:13:32.268Z,16.13
2022-12-11T21:16:04.996Z,16.42
2022-12-11T21:20:58.187Z,15.98
2022-12-11T21:23:25.534Z,16.30
2022-12-11T21:25:52.630Z,15.90
2022-12-11T21:28:20.184Z,15.35
2022-12-11T21:30:47.291Z,16.52
2022-12-11T21:33:16.365Z,17.15
2022-12-11T21:35:43.159Z,16.10
2022-12-11T21:38:09.764Z,15.82
2022-12-11T21:40:36.682Z,16.65
2022-12-11T21:43:03.546Z,17.15
2022-12-11T21:48:18.250Z,16.10
2022-12-11T21:50:44.825Z,17.98
2022-12-11T21:53:11.460Z,18.00
2022-12-11T21:55:40.369Z,18.20
2022-12-11T21:58:07.050Z,17.73
2022-12-11T22:00:35.571Z,17.30
2022-12-11T22:03:02.549Z,16.92
2022-12-11T22:05:30.873Z,18.52
2022-12-11T22:07:57.484Z,18.00
2022-12-11T22:10:24.115Z,17.83
2022-12-11T22:12:50.879Z,18.98
2022-12-11T22:15:17.484Z,18.45
2022-12-11T22:17:44.367Z,19.08
2022-12-11T22:20:11.761Z,19.10
2022-12-11T22:22:39.769Z,18.25
2022-12-11T22:25:07.088Z,18.52
2022-12-11T22:27:33.998Z,19.60
2022-12-11T22:30:00.664Z,18.38
2022-12-11T22:32:27.408Z,18.13
2022-12-11T22:34:54.478Z,18.38
2022-12-11T22:37:21.130Z,20.02
2022-12-11T22:39:49.136Z,18.35
2022-12-11T22:42:15.893Z,19.40
2022-12-11T22:44:42.926Z,19.20
2022-12-11T22:47:09.671Z,18.40
2022-12-11T22:49:36.310Z,19.77
2022-12-11T22:52:03.055Z,20.27
2022-12-11T22:54:29.704Z,19.13
2022-12-11T22:56:59.507Z,19.05
2022-12-11T22:59:26.200Z,19.52
2022-12-11T23:01:52.788Z,19.08
2022-12-11T23:04:19.555Z,19.58
2022-12-11T23:06:46.177Z,18.67
2022-12-11T23:09:13.437Z,19.48
2022-12-11T23:11:40.243Z,19.63
2022-12-11T23:14:12.846Z,19.02
2022-12-11T23:16:39.564Z,20.83
2022-12-11T23:19:06.256Z,19.80
2022-12-11T23:21:33.041Z,19.73
2022-12-11T23:23:59.824Z,19.13
2022-12-11T23:26:27.705Z,18.27
2022-12-11T23:28:55.406Z,19.70
2022-12-11T23:31:24.490Z,19.15
2022-12-11T23:33:51.373Z,20.70
2022-12-11T23:36:18.434Z,17.88
2022-12-11T23:38:49.549Z,19.05
2022-12-11T23:41:19.672Z,21.10
2022-12-11T23:43:46.520Z,19.67
2022-12-11T23:46:15.489Z,19.38
2022-12-11T23:48:44.032Z,18.85
2022-12-11T23:51:13.888Z,18.63
2022-12-11T23:53:41.404Z,17.98
2022-12-11T23:56:10.210Z,19.58
2022-12-11T23:58:38.121Z,19.80
